Time;durP1;ratioP1;P1;durP2;ratioP2;P2;SDS_P1;SDS_P2;PMS_P1;PMS_P2;Temp;Humidity;BMP_temperature;BMP_pressure;BME280_temperature;BME280_humidity;BME280_pressure;Samples;Min_cycle;Max_cycle;Signal;HPM_P1;HPM_P2
2023/02/27 00:00:13;;;;;;;2.60;1.80;;;-0.90;99.90;;;-141.84;66.61;18868.91;5049608;28;20226;-66
2023/02/27 00:02:42;;;;;;;1.70;1.53;;;-0.90;99.90;;;-141.84;66.04;18909.53;5049194;28;20227;-67
2023/02/27 00:05:11;;;;;;;3.77;1.70;;;-0.90;99.90;;;-141.84;66.23;18848.59;5049614;28;20221;-67
2023/02/27 00:07:40;;;;;;;1.63;1.53;;;-0.90;99.90;;;-141.84;66.72;18877.03;5049862;28;20202;-67
2023/02/27 00:10:13;;;;;;;2.10;1.60;;;-0.90;99.90;;;-141.84;67.17;18868.91;5049287;28;20236;-66
2023/02/27 00:12:42;;;;;;;1.90;1.47;;;-1.00;99.90;;;-141.84;67.49;18848.59;5049113;28;20229;-67
2023/02/27 00:15:14;;;;;;;1.70;1.50;;;-1.10;99.90;;;-141.84;68.15;18848.59;5049192;28;20233;-65
2023/02/27 00:17:43;;;;;;;2.43;2.00;;;-1.20;99.90;;;-141.84;68.01;18858.75;5037767;28;20225;-67
2023/02/27 00:20:16;;;;;;;1.90;1.40;;;-1.20;99.90;;;-141.84;68.36;18868.91;5049218;28;20233;-66
2023/02/27 00:22:45;;;;;;;2.77;1.83;;;-1.20;99.90;;;-141.84;68.66;18850.63;5050114;28;20182;-66
2023/02/27 00:25:15;;;;;;;2.07;1.60;;;-1.20;99.90;;;-141.84;68.58;18844.53;5049679;28;20231;-67
2023/02/27 00:27:44;;;;;;;2.30;1.50;;;-1.30;99.90;;;-141.84;68.17;18846.56;5049183;28;20748;-67
2023/02/27 00:30:15;;;;;;;2.23;1.60;;;-1.20;99.90;;;-141.84;68.78;18838.44;5049152;28;20231;-66
2023/02/27 00:32:44;;;;;;;3.10;1.83;;;-1.30;99.90;;;-141.84;68.99;18866.88;5049159;28;20721;-66
2023/02/27 00:35:13;;;;;;;2.43;1.50;;;-1.30;99.90;;;-141.84;68.28;18822.19;5049435;28;20232;-66
2023/02/27 00:37:41;;;;;;;3.27;1.97;;;-1.30;99.90;;;-141.84;68.10;18872.97;5049378;28;20221;-66
2023/02/27 00:40:11;;;;;;;3.53;1.67;;;-1.20;99.90;;;-141.84;68.13;18844.53;5048933;28;20239;-66
2023/02/27 00:42:41;;;;;;;2.13;1.60;;;-1.30;99.90;;;-141.84;68.25;18905.47;5049150;28;20579;-67
2023/02/27 00:45:10;;;;;;;2.77;1.57;;;-1.30;99.90;;;-141.84;67.83;18840.47;5058932;28;20651;-66
2023/02/27 00:47:38;;;;;;;2.23;1.83;;;-1.20;99.90;;;-141.84;67.63;18883.13;5032643;28;20341;-66
2023/02/27 00:50:08;;;;;;;3.27;1.80;;;-1.20;99.90;;;-141.84;67.33;18846.56;5032822;28;20226;-68
2023/02/27 00:52:36;;;;;;;2.17;1.60;;;-1.10;99.90;;;-141.84;67.26;18899.38;5033553;28;20218;-66
2023/02/27 00:55:06;;;;;;;2.60;1.77;;;-1.10;99.90;;;-141.84;67.80;18858.75;5032412;28;20579;-67
2023/02/27 00:57:34;;;;;;;1.60;1.40;;;-1.10;99.90;;;-141.84;68.42;18840.47;5047459;28;20232;-66
2023/02/27 01:00:06;;;;;;;3.20;1.73;;;-1.20;99.90;;;-141.84;69.04;18844.53;5041775;28;20257;-66
2023/02/27 01:02:35;;;;;;;2.47;1.80;;;-1.30;99.90;;;-141.84;68.75;18860.78;5052056;28;20274;-66
2023/02/27 01:05:03;;;;;;;2.70;1.73;;;-1.10;99.90;;;-141.84;69.32;18838.44;5052275;28;20252;-67
2023/02/27 01:07:32;;;;;;;1.83;1.60;;;-1.40;99.90;;;-141.84;69.56;18824.22;5053036;28;20215;-67
2023/02/27 01:10:00;;;;;;;2.57;1.80;;;-1.40;99.90;;;-141.84;69.63;18846.56;5036426;28;20226;-67
2023/02/27 01:12:29;;;;;;;2.00;1.57;;;-1.40;99.90;;;-141.84;70.32;18838.44;5031986;28;20668;-66
2023/02/27 01:14:57;;;;;;;2.70;1.57;;;-1.50;99.90;;;-141.84;70.57;18828.28;5041873;28;20229;-68
2023/02/27 01:17:26;;;;;;;2.77;1.90;;;-1.50;99.90;;;-141.84;70.74;18826.25;5052272;28;20233;-66
2023/02/27 01:19:54;;;;;;;3.37;2.00;;;-1.60;99.90;;;-141.84;70.57;18850.63;5050114;28;20842;-69
2023/02/27 01:22:23;;;;;;;2.87;1.80;;;-1.50;99.90;;;-141.84;70.59;18850.63;5032766;28;20337;-68
2023/02/27 01:24:51;;;;;;;2.47;1.70;;;-1.50;99.90;;;-141.84;70.71;18868.91;5031812;28;20284;-66
2023/02/27 01:27:19;;;;;;;3.87;2.00;;;-1.50;99.90;;;-141.84;70.20;18862.81;5045123;28;20225;-66
2023/02/27 01:29:47;;;;;;;2.70;1.80;;;-1.50;99.90;;;-141.84;70.85;18836.41;5052148;28;20224;-67
2023/02/27 01:32:16;;;;;;;2.30;1.90;;;-1.50;99.90;;;-141.84;70.55;18834.38;5051824;28;20236;-67
2023/02/27 01:34:45;;;;;;;1.77;1.60;;;-1.50;99.90;;;-141.84;70.15;18854.69;5052363;28;20212;-68
2023/02/27 01:37:14;;;;;;;3.23;2.03;;;-1.50;99.90;;;-141.84;70.46;18856.72;5051919;28;20221;-68
2023/02/27 01:39:42;;;;;;;2.70;2.20;;;-1.50;99.90;;;-141.84;69.82;18862.81;5051241;28;20579;-67
2023/02/27 01:42:20;;;;;;;3.40;1.87;;;-1.40;99.90;;;-141.84;69.27;18860.78;5051585;28;20229;-67
2023/02/27 01:45:26;;;;;;;3.13;2.00;;;-1.30;99.90;;;-141.84;69.41;18864.84;5051174;28;20712;-67
2023/02/27 01:48:02;;;;;;;2.50;2.00;;;-1.20;99.90;;;-141.84;68.66;18842.50;4970080;28;20224;-67
2023/02/27 01:50:35;;;;;;;2.63;2.20;;;-1.10;99.90;;;-141.84;68.51;18875.00;5042077;28;20231;-65
2023/02/27 01:53:05;;;;;;;2.50;1.70;;;-1.00;99.90;;;-141.84;68.13;18862.81;5051656;28;20189;-67
2023/02/27 01:55:38;;;;;;;4.23;2.10;;;-0.90;99.90;;;-141.84;67.46;18881.09;5051644;28;20189;-67
2023/02/27 01:58:10;;;;;;;2.43;1.77;;;-0.80;99.90;;;-141.84;66.65;18895.31;5051123;28;20232;-66
2023/02/27 02:00:39;;;;;;;2.07;1.87;;;-0.70;99.90;;;-141.84;67.03;18856.72;5051167;28;20596;-65
2023/02/27 02:03:18;;;;;;;1.97;1.67;;;-0.60;99.90;;;-141.84;66.47;18887.19;5051198;28;20229;-67
2023/02/27 02:05:49;;;;;;;1.90;1.60;;;-0.50;99.90;;;-141.84;66.56;18905.47;5051173;28;20233;-66
2023/02/27 02:08:21;;;;;;;3.00;1.87;;;-0.50;99.90;;;-141.84;66.41;18893.28;5051090;28;20233;-67
2023/02/27 02:10:53;;;;;;;2.20;1.77;;;-0.50;99.90;;;-141.84;66.89;18862.81;5051141;28;20205;-65
2023/02/27 02:13:22;;;;;;;2.93;1.70;;;-0.50;99.90;;;-141.84;66.38;18860.78;5051802;28;20201;-66
2023/02/27 02:16:16;;;;;;;2.30;1.90;;;-0.50;99.90;;;-141.84;67.16;18875.00;5050888;28;20232;-67
2023/02/27 02:18:59;;;;;;;2.23;1.80;;;-0.50;99.90;;;-141.84;67.89;18881.09;5050743;28;20241;-67
2023/02/27 02:22:16;;;;;;;3.53;1.73;;;-0.50;99.90;;;-141.84;67.73;18856.72;5017593;28;20767;-67
2023/02/27 02:25:41;;;;;;;3.77;1.70;;;-0.50;99.90;;;-141.84;67.72;18885.16;5051016;28;20255;-66
2023/02/27 02:28:31;;;;;;;2.13;1.73;;;-0.50;99.90;;;-141.84;67.24;18913.59;4999620;28;20247;-67
2023/02/27 02:31:37;;;;;;;2.30;1.80;;;-0.50;99.90;;;-141.84;67.17;18889.22;5050026;28;20294;-68
2023/02/27 02:35:02;;;;;;;3.40;2.00;;;-0.40;99.90;;;-141.84;66.98;18907.50;5051027;28;20228;-67
2023/02/27 02:38:19;;;;;;;2.20;1.70;;;-0.40;99.90;;;-141.84;68.13;18870.94;5045473;28;20222;-67
2023/02/27 02:40:56;;;;;;;2.77;1.80;;;-0.40;99.90;;;-141.84;68.10;18903.44;5004668;28;20233;-66
2023/02/27 02:43:32;;;;;;;2.47;1.80;;;-0.40;99.90;;;-141.84;68.15;18883.13;5031579;28;20196;-67
2023/02/27 02:46:09;;;;;;;2.53;1.83;;;-0.40;99.90;;;-141.84;68.54;18875.00;5030396;28;20624;-66
2023/02/27 02:48:48;;;;;;;2.13;1.57;;;-0.30;99.90;;;-141.84;68.57;18883.13;5015658;28;20221;-66
2023/02/27 02:51:26;;;;;;;4.33;1.80;;;-0.30;99.90;;;-141.84;69.09;18893.28;5038563;28;20229;-67
2023/02/27 02:54:07;;;;;;;2.80;2.00;;;-0.40;99.90;;;-141.84;69.11;18866.88;5040729;28;20217;-68
2023/02/27 02:56:48;;;;;;;2.20;1.60;;;-0.30;99.90;;;-141.84;68.95;18905.47;5050739;28;20225;-66
2023/02/27 02:59:30;;;;;;;2.93;2.07;;;-0.30;99.90;;;-141.84;69.07;18895.31;5051058;28;20310;-66
2023/02/27 03:02:06;;;;;;;2.63;1.60;;;-0.30;99.90;;;-141.84;69.26;18866.88;5050259;28;20212;-67
2023/02/27 03:04:41;;;;;;;2.60;1.77;;;-0.40;99.90;;;-141.84;69.36;18862.81;5051082;28;20184;-67
2023/02/27 03:07:17;;;;;;;1.97;1.70;;;-0.40;99.90;;;-141.84;69.90;18856.72;5049740;28;20236;-66
2023/02/27 03:09:53;;;;;;;2.90;1.93;;;-0.40;99.90;;;-141.84;70.20;18875.00;5048035;28;20234;-66
2023/02/27 03:12:26;;;;;;;2.00;1.70;;;-0.40;99.90;;;-141.84;69.31;18889.22;5050430;28;20243;-67
2023/02/27 03:15:01;;;;;;;2.47;1.93;;;-0.30;99.90;;;-141.84;68.93;18887.19;5050661;28;20733;-67
2023/02/27 03:17:41;;;;;;;2.37;1.87;;;-0.20;99.90;;;-141.84;68.52;18899.38;5031993;28;20224;-66
2023/02/27 03:20:19;;;;;;;2.90;2.30;;;-0.10;99.90;;;-141.84;69.35;18879.06;5030807;28;20228;-67
2023/02/27 03:22:54;;;;;;;2.00;1.70;;;-0.20;99.90;;;-141.84;69.90;18893.28;5030850;28;20185;-67
2023/02/27 03:25:26;;;;;;;2.93;1.90;;;-0.20;99.90;;;-141.84;69.76;18893.28;5051297;28;20195;-66
2023/02/27 03:28:01;;;;;;;3.00;1.77;;;-0.20;99.90;;;-141.84;69.97;18893.28;5050433;28;20234;-66
2023/02/27 03:30:36;;;;;;;2.93;1.77;;;-0.20;99.90;;;-141.84;69.09;18875.00;5051035;28;20242;-67
2023/02/27 03:33:13;;;;;;;2.33;1.60;;;-0.10;99.90;;;-141.84;68.98;18933.94;5050638;28;20225;-66
2023/02/27 03:35:51;;;;;;;1.83;1.67;;;0.00;99.90;;;-141.84;69.61;18887.19;5050195;28;20223;-66
2023/02/27 03:38:30;;;;;;;1.50;1.40;;;-0.10;99.90;;;-141.84;68.57;18866.88;5049930;28;20305;-66
2023/02/27 03:41:11;;;;;;;2.13;1.73;;;0.00;99.90;;;-141.84;68.66;18877.03;5050378;28;20181;-67
2023/02/27 03:43:51;;;;;;;2.10;1.57;;;0.00;99.90;;;-141.84;69.38;18899.38;5050945;28;20187;-67
2023/02/27 03:46:25;;;;;;;5.90;1.97;;;-0.10;99.90;;;-141.84;69.77;18870.94;5037140;28;20214;-66
2023/02/27 03:48:53;;;;;;;2.87;1.60;;;-0.10;99.90;;;-141.84;69.92;18897.34;5029871;28;20225;-66
2023/02/27 03:51:26;;;;;;;3.43;1.90;;;-0.10;99.90;;;-141.84;69.52;18870.94;5045069;28;20241;-66
2023/02/27 03:54:03;;;;;;;2.33;1.80;;;-0.10;99.90;;;-141.84;69.04;18887.19;5069637;28;20304;-66
2023/02/27 03:56:40;;;;;;;2.67;1.90;;;0.00;99.90;;;-141.84;69.73;18879.06;5069637;28;20227;-66
2023/02/27 03:59:10;;;;;;;2.77;2.00;;;0.00;99.90;;;-141.84;69.33;18866.88;5051235;28;20231;-66
2023/02/27 04:01:39;;;;;;;2.97;1.80;;;0.00;99.90;;;-141.84;69.41;18923.78;5049959;28;20606;-67
2023/02/27 04:04:12;;;;;;;3.43;1.93;;;0.00;99.90;;;-141.84;69.84;18862.81;5049677;28;20252;-67
2023/02/27 04:10:12;;;;;;;2.37;1.80;;;0.00;99.90;;;-141.84;69.13;18877.03;5049558;28;20591;-66
2023/02/27 04:13:18;;;;;;;2.00;1.70;;;0.00;99.90;;;-141.84;69.71;18905.47;5019054;28;20257;-66
2023/02/27 04:16:33;;;;;;;3.03;1.80;;;0.00;99.90;;;-141.84;69.52;18877.03;5049625;28;20226;-67
2023/02/27 04:19:28;;;;;;;4.00;1.70;;;0.10;99.90;;;-141.84;68.38;18915.63;5047106;28;20237;-66
2023/02/27 04:22:12;;;;;;;2.63;1.77;;;0.20;99.90;;;-141.84;69.08;18905.47;5053115;28;20224;-66
2023/02/27 04:24:55;;;;;;;3.53;2.07;;;0.10;99.90;;;-141.84;68.51;18931.91;5053627;28;20229;-66
2023/02/27 04:27:38;;;;;;;3.37;1.80;;;0.20;99.90;;;-141.84;67.52;18911.56;5052970;28;20346;-66
2023/02/27 04:30:24;;;;;;;1.90;1.70;;;0.30;99.90;;;-141.84;67.80;18911.56;5053233;28;20229;-66
2023/02/27 04:33:01;;;;;;;2.70;1.80;;;0.20;99.90;;;-141.84;68.62;18911.56;5052755;28;20223;-67
2023/02/27 04:35:39;;;;;;;2.20;1.90;;;0.20;99.90;;;-141.84;67.53;18901.41;5053293;28;20221;-65
2023/02/27 04:38:18;;;;;;;2.47;1.67;;;0.30;99.90;;;-141.84;68.20;18868.91;5053093;28;20236;-67
2023/02/27 04:40:54;;;;;;;2.60;1.70;;;0.20;99.90;;;-141.84;68.54;18895.31;5053150;28;20218;-57
2023/02/27 04:43:27;;;;;;;2.73;1.80;;;0.20;99.90;;;-141.84;69.20;18879.06;5057789;28;20188;-58
2023/02/27 04:46:00;;;;;;;2.87;1.80;;;0.10;99.90;;;-141.84;69.80;18862.81;5059643;28;20229;-56
2023/02/27 04:48:37;;;;;;;2.30;1.97;;;0.10;99.90;;;-141.84;69.86;18895.31;5052836;28;20232;-57
2023/02/27 04:51:13;;;;;;;3.30;1.90;;;0.10;99.90;;;-141.84;69.50;18848.59;5058400;28;20234;-57
2023/02/27 04:53:52;;;;;;;2.47;1.80;;;0.10;99.90;;;-141.84;70.04;18875.00;5068581;28;20248;-59
2023/02/27 04:56:29;;;;;;;1.90;1.50;;;0.10;99.90;;;-141.84;69.92;18891.25;5052968;28;20224;-57
2023/02/27 04:59:05;;;;;;;3.93;1.90;;;0.10;99.90;;;-141.84;70.21;18885.16;5052654;28;20221;-56
2023/02/27 05:01:41;;;;;;;2.00;1.60;;;0.10;99.90;;;-141.84;69.88;18891.25;5053145;28;20192;-55
2023/02/27 05:04:19;;;;;;;1.50;1.27;;;0.10;99.90;;;-141.84;69.07;18872.97;5052291;28;20224;-57
2023/02/27 05:06:49;;;;;;;2.83;1.70;;;0.20;99.90;;;-141.84;68.11;18897.34;5052489;28;20309;-57
2023/02/27 05:09:28;;;;;;;3.17;1.53;;;0.30;99.90;;;-141.84;68.49;18897.34;5052519;28;20222;-55
2023/02/27 05:12:03;;;;;;;2.27;1.60;;;0.20;99.90;;;-141.84;68.33;18903.44;5052838;28;20742;-58
2023/02/27 05:14:40;;;;;;;3.20;1.93;;;0.30;99.90;;;-141.84;68.77;18905.47;5052220;28;20280;-57
2023/02/27 05:17:14;;;;;;;2.50;1.83;;;0.30;99.90;;;-141.84;69.52;18903.44;5052207;28;20224;-56
2023/02/27 05:19:45;;;;;;;2.00;1.70;;;0.20;99.90;;;-141.84;70.18;18885.16;5052303;28;20241;-58
2023/02/27 05:22:28;;;;;;;4.47;2.40;;;0.20;99.90;;;-141.84;69.99;18875.00;5052581;28;20213;-57
2023/02/27 05:25:08;;;;;;;2.50;2.10;;;0.20;99.90;;;-141.84;70.62;18866.88;5052302;28;20703;-57
2023/02/27 05:27:46;;;;;;;3.97;2.17;;;0.10;99.90;;;-141.84;71.04;18883.13;5051987;28;20295;-56
2023/02/27 05:30:26;;;;;;;3.80;2.03;;;0.00;99.90;;;-141.84;71.83;18846.56;5051535;28;20247;-58
2023/02/27 05:33:01;;;;;;;4.50;2.00;;;-0.20;99.90;;;-141.84;72.37;18872.97;5018675;28;20259;-59
2023/02/27 05:35:38;;;;;;;3.03;2.10;;;-0.30;99.90;;;-141.84;72.21;18842.50;5052393;28;20219;-58
2023/02/27 05:38:12;;;;;;;3.50;1.87;;;-0.30;99.90;;;-141.84;73.15;18850.63;5051563;28;20310;-57
2023/02/27 05:40:47;;;;;;;3.37;2.30;;;-0.40;99.90;;;-141.84;73.84;18826.25;5052501;28;20215;-59
2023/02/27 05:43:22;;;;;;;5.73;2.00;;;-0.50;99.90;;;-141.84;74.57;18797.78;5055499;28;20582;-58
2023/02/27 05:45:58;;;;;;;3.00;2.13;;;-0.70;99.90;;;-141.84;75.33;18826.25;5049883;28;20252;-59
2023/02/27 05:48:32;;;;;;;4.10;2.20;;;-0.80;99.90;;;-141.84;75.92;18816.06;5031535;28;20705;-58
2023/02/27 05:51:05;;;;;;;3.00;2.40;;;-0.90;99.90;;;-141.84;75.57;18836.41;5008586;28;20235;-56
2023/02/27 05:53:43;;;;;;;3.57;2.53;;;-0.80;99.90;;;-141.84;75.00;18864.84;5051956;28;20315;-58
2023/02/27 05:56:17;;;;;;;2.97;2.20;;;-0.70;99.90;;;-141.84;75.59;18826.25;5051420;28;20697;-57
2023/02/27 05:58:54;;;;;;;3.13;2.20;;;-0.80;99.90;;;-141.84;76.31;18809.97;5051178;28;20194;-58
2023/02/27 06:01:22;;;;;;;4.20;2.30;;;-0.80;99.90;;;-141.84;76.71;18824.22;5051608;28;20221;-55
2023/02/27 06:03:51;;;;;;;4.03;2.30;;;-0.90;99.90;;;-141.84;76.61;18824.22;5051443;28;20232;-58
2023/02/27 06:06:22;;;;;;;4.13;2.07;;;-1.00;99.90;;;-141.84;77.36;18787.63;5051355;28;20232;-58
2023/02/27 06:08:50;;;;;;;5.97;3.00;;;-1.00;99.90;;;-141.84;77.57;18799.81;5048799;28;20242;-58
2023/02/27 06:11:18;;;;;;;8.70;4.60;;;-1.00;99.90;;;-141.84;77.38;18809.97;5051252;28;20220;-57
2023/02/27 06:13:46;;;;;;;5.47;3.70;;;-1.00;99.90;;;-141.84;77.69;18826.25;5051307;28;20212;-56
2023/02/27 06:16:16;;;;;;;4.60;3.43;;;-1.00;99.90;;;-141.84;77.86;18826.25;5043857;28;20205;-58
2023/02/27 06:18:44;;;;;;;4.40;2.90;;;-1.00;99.90;;;-141.84;76.87;18838.44;5031007;28;20258;-56
2023/02/27 06:21:13;;;;;;;4.60;2.87;;;-0.90;99.90;;;-141.84;77.25;18799.81;5043529;28;20233;-59
2023/02/27 06:23:43;;;;;;;4.30;2.47;;;-0.80;99.90;;;-141.84;77.16;18826.25;5051199;28;20213;-58
2023/02/27 06:26:13;;;;;;;5.80;2.67;;;-0.90;99.90;;;-141.84;76.86;18795.75;5050992;28;20232;-57
2023/02/27 06:28:41;;;;;;;3.27;2.50;;;-0.80;99.90;;;-141.84;76.55;18793.72;5051644;28;20208;-59
2023/02/27 06:31:09;;;;;;;6.73;3.37;;;-0.70;99.90;;;-141.84;76.51;18816.06;5051002;28;20227;-57
2023/02/27 06:33:37;;;;;;;4.30;2.60;;;-0.70;99.90;;;-141.84;76.73;18816.06;5050854;28;20233;-57
2023/02/27 06:36:06;;;;;;;2.97;2.53;;;-0.70;99.90;;;-141.84;76.67;18838.44;5050811;28;20225;-55
2023/02/27 06:38:35;;;;;;;2.97;2.30;;;-0.60;99.90;;;-141.84;75.84;18830.31;5050896;28;20323;-56
2023/02/27 06:41:06;;;;;;;4.00;2.67;;;-0.50;99.90;;;-141.84;76.13;18822.19;5050273;28;20227;-55
2023/02/27 06:43:35;;;;;;;3.90;3.10;;;-0.50;99.90;;;-141.84;76.51;18864.84;5015676;28;20665;-60
2023/02/27 06:46:04;;;;;;;3.67;2.63;;;-0.40;99.90;;;-141.84;76.38;18844.53;5050065;28;20222;-56
2023/02/27 06:48:32;;;;;;;3.47;2.40;;;-0.40;99.90;;;-141.84;75.68;18828.28;5050638;28;20229;-55
2023/02/27 06:51:00;;;;;;;5.07;2.97;;;-0.30;99.90;;;-141.84;75.41;18870.94;5063288;28;20233;-57
2023/02/27 06:53:29;;;;;;;4.53;2.07;;;-0.20;99.90;;;-141.84;75.23;18854.69;5070708;28;20223;-56
2023/02/27 06:55:57;;;;;;;4.73;2.40;;;-0.10;99.90;;;-141.84;74.82;18875.00;5070433;28;20201;-56
2023/02/27 06:58:28;;;;;;;3.60;2.30;;;0.00;99.90;;;-141.84;73.86;18868.91;5070907;28;20197;-56
2023/02/27 07:00:59;;;;;;;4.43;2.10;;;0.10;99.90;;;-141.84;73.57;18846.56;5070237;28;20224;-56
2023/02/27 07:03:27;;;;;;;3.63;2.23;;;0.20;99.90;;;-141.84;71.67;18883.13;5070350;28;20228;-57
2023/02/27 07:05:57;;;;;;;4.07;2.37;;;0.40;99.90;;;-141.84;71.38;18868.91;5070308;28;20232;-56
2023/02/27 07:08:26;;;;;;;2.73;2.33;;;0.50;99.90;;;-141.84;71.58;18897.34;5068009;28;20231;-59
2023/02/27 07:10:54;;;;;;;2.47;1.97;;;0.50;99.90;;;-141.84;71.14;18901.41;5049987;28;20198;-57
2023/02/27 07:13:22;;;;;;;3.83;2.20;;;0.60;99.90;;;-141.84;71.71;18903.44;5050824;28;20554;-54
2023/02/27 07:15:52;;;;;;;4.53;2.50;;;0.60;99.90;;;-141.84;71.91;18885.16;5050124;28;20226;-55
2023/02/27 07:18:21;;;;;;;4.33;2.03;;;0.60;99.90;;;-141.84;71.13;18883.13;5030324;28;20316;-55
2023/02/27 07:20:50;;;;;;;4.67;2.20;;;0.60;99.90;;;-141.84;71.25;18893.28;5029896;28;20225;-56
2023/02/27 07:23:19;;;;;;;2.40;2.00;;;0.60;99.90;;;-141.84;70.97;18895.31;5049347;28;20341;-57
2023/02/27 07:25:47;;;;;;;2.63;2.20;;;0.50;99.90;;;-141.84;71.03;18875.00;5049615;28;20689;-58
2023/02/27 07:28:16;;;;;;;5.27;2.37;;;0.60;99.90;;;-141.84;70.75;18887.19;5050577;28;20208;-57
2023/02/27 07:30:46;;;;;;;3.77;2.03;;;0.60;99.90;;;-141.84;70.04;18907.50;5049900;28;20255;-57
2023/02/27 07:33:16;;;;;;;2.67;2.00;;;0.70;99.90;;;-141.84;70.13;18887.19;5049851;28;20224;-55
2023/02/27 07:35:45;;;;;;;3.23;2.37;;;0.60;99.90;;;-141.84;69.82;18913.59;5050309;28;20237;-57
2023/02/27 07:38:13;;;;;;;3.57;2.10;;;0.70;99.90;;;-141.84;70.15;18899.38;5050163;28;20227;-58
2023/02/27 07:40:42;;;;;;;4.27;2.10;;;0.70;99.90;;;-141.84;68.15;18915.63;5031021;28;20209;-59
2023/02/27 07:43:10;;;;;;;4.57;2.00;;;1.00;99.90;;;-141.84;67.81;18925.81;5052915;28;20247;-60
2023/02/27 07:45:38;;;;;;;3.13;2.03;;;1.10;99.90;;;-141.84;66.54;18944.09;5050954;28;20233;-59
2023/02/27 07:48:07;;;;;;;3.43;2.40;;;1.30;99.90;;;-141.84;66.09;18946.13;5029719;28;20222;-60
2023/02/27 07:50:36;;;;;;;3.93;2.10;;;1.40;99.90;;;-141.84;65.24;18964.41;5049837;28;20597;-61
2023/02/27 07:53:06;;;;;;;2.93;2.27;;;1.50;99.90;;;-141.84;64.48;18958.31;5051041;28;20691;-59
2023/02/27 07:55:35;;;;;;;3.60;1.90;;;1.60;99.90;;;-141.84;64.39;18980.66;5054548;28;20754;-61
2023/02/27 07:58:03;;;;;;;3.37;2.10;;;1.80;99.90;;;-141.84;64.64;18980.66;5054432;28;20235;-60
2023/02/27 08:00:31;;;;;;;3.03;1.80;;;1.90;99.90;;;-141.84;63.26;19033.50;5053908;28;20610;-60
2023/02/27 08:03:00;;;;;;;3.30;2.23;;;2.10;99.90;;;-141.84;62.35;19019.28;5053869;28;20232;-60
2023/02/27 08:05:28;;;;;;;2.53;1.77;;;2.30;99.90;;;-141.84;62.16;19033.50;5054092;28;20225;-59
2023/02/27 08:07:58;;;;;;;3.53;2.00;;;2.40;99.90;;;-141.84;62.16;19041.63;5053926;28;20227;-60
2023/02/27 08:10:26;;;;;;;3.83;2.07;;;2.60;99.90;;;-141.84;61.66;19031.47;5019868;28;20193;-58
2023/02/27 08:12:55;;;;;;;4.20;2.10;;;2.60;99.90;;;-141.84;61.89;19035.53;5053539;28;20237;-60
2023/02/27 08:15:23;;;;;;;2.40;2.20;;;2.60;99.90;;;-141.84;61.88;19063.97;5052376;28;20752;-60
2023/02/27 08:17:52;;;;;;;3.70;2.43;;;2.70;99.90;;;-141.84;62.33;19068.03;5040490;28;20223;-59
2023/02/27 08:20:21;;;;;;;2.93;1.97;;;2.70;99.90;;;-141.84;63.09;19039.59;5028783;28;20726;-59
2023/02/27 08:22:50;;;;;;;3.23;2.10;;;2.50;99.90;;;-141.84;63.53;19013.16;5032679;28;20609;-60
2023/02/27 08:25:20;;;;;;;5.70;2.07;;;2.40;99.90;;;-141.84;64.15;19025.38;5029504;28;20668;-58
2023/02/27 08:27:48;;;;;;;2.60;2.10;;;2.30;99.90;;;-141.84;64.35;19033.50;5050800;28;20275;-60
2023/02/27 08:30:17;;;;;;;3.40;2.17;;;2.30;99.90;;;-141.84;64.04;19015.19;5053558;28;20636;-59
2023/02/27 08:32:45;;;;;;;2.80;2.20;;;2.40;99.90;;;-141.84;64.39;19000.97;5053329;28;20223;-59
2023/02/27 08:35:14;;;;;;;3.20;2.03;;;2.30;99.90;;;-141.84;64.99;18992.84;5053495;28;20230;-60
2023/02/27 08:37:42;;;;;;;2.93;2.30;;;2.20;99.90;;;-141.84;65.19;19009.09;5018327;28;20216;-59
2023/02/27 08:40:12;;;;;;;3.07;2.33;;;2.20;99.90;;;-141.84;65.10;18990.81;5033834;28;20225;-60
2023/02/27 08:42:42;;;;;;;4.50;2.80;;;2.20;99.90;;;-141.84;65.14;18984.72;5049242;28;20248;-60
2023/02/27 08:45:11;;;;;;;4.70;2.33;;;2.10;99.90;;;-141.84;65.67;18978.63;5053222;28;20661;-60
2023/02/27 08:47:39;;;;;;;3.77;2.30;;;2.10;99.90;;;-141.84;64.89;19021.31;5052225;28;20301;-60
2023/02/27 08:50:11;;;;;;;4.10;2.50;;;2.20;99.90;;;-141.84;65.01;19005.03;5058687;28;20236;-60
2023/02/27 08:52:40;;;;;;;4.33;2.03;;;2.20;99.90;;;-141.84;65.10;18980.66;5073534;28;20188;-60
2023/02/27 08:55:09;;;;;;;4.93;2.40;;;2.50;99.90;;;-141.84;64.42;19021.31;5072712;28;20309;-61
2023/02/27 08:57:37;;;;;;;4.47;2.87;;;2.30;99.90;;;-141.84;63.81;19007.06;5072326;28;20224;-60
2023/02/27 09:00:13;;;;;;;3.23;1.97;;;2.30;99.90;;;-141.84;63.68;19047.72;5072714;28;20235;-60
2023/02/27 09:02:41;;;;;;;3.30;2.30;;;2.30;99.90;;;-141.84;63.99;19015.19;5055056;28;20773;-61
2023/02/27 09:05:10;;;;;;;3.47;2.30;;;2.40;99.90;;;-141.84;64.42;19031.47;5071850;28;20238;-61
2023/02/27 09:07:38;;;;;;;3.33;2.40;;;2.40;99.90;;;-141.84;64.17;19023.34;5073116;28;20269;-62
2023/02/27 09:10:07;;;;;;;3.27;2.60;;;2.40;99.90;;;-141.84;63.80;18984.72;5056268;28;20246;-59
2023/02/27 09:12:36;;;;;;;3.40;2.30;;;2.60;99.90;;;-141.84;63.38;19055.84;5052562;28;20250;-60
2023/02/27 09:15:07;;;;;;;3.50;2.10;;;2.50;99.90;;;-141.84;63.76;19017.25;5052594;28;20248;-60
2023/02/27 09:17:36;;;;;;;6.63;2.90;;;2.50;99.90;;;-141.84;63.29;19035.53;5052473;28;20225;-60
2023/02/27 09:20:08;;;;;;;4.30;2.73;;;2.50;99.90;;;-141.84;63.71;19037.56;5052523;28;20230;-59
2023/02/27 09:22:36;;;;;;;3.40;2.40;;;2.50;99.90;;;-141.84;63.29;19025.38;5053275;28;20205;-59
2023/02/27 09:25:05;;;;;;;4.13;2.83;;;2.60;99.90;;;-141.84;62.93;19070.06;5052412;28;20233;-61
2023/02/27 09:27:33;;;;;;;5.07;2.50;;;2.60;99.90;;;-141.84;63.85;19066.00;5052431;28;20235;-61
2023/02/27 09:30:02;;;;;;;3.27;2.40;;;2.70;99.90;;;-141.84;62.87;19066.00;5052526;28;20717;-60
2023/02/27 09:32:31;;;;;;;4.27;2.70;;;2.80;99.90;;;-141.84;63.73;19057.88;5052378;28;20225;-59
2023/02/27 09:34:59;;;;;;;2.97;2.10;;;2.60;99.90;;;-141.84;62.63;19076.16;5052638;28;20260;-59
2023/02/27 09:37:28;;;;;;;4.53;2.73;;;2.80;99.90;;;-141.84;63.27;19063.97;5053486;28;20205;-59
2023/02/27 09:39:56;;;;;;;4.33;2.60;;;2.90;99.90;;;-141.84;63.55;19070.06;5052296;28;20765;-60
2023/02/27 09:42:33;;;;;;;4.03;2.50;;;2.90;99.90;;;-141.84;61.40;19114.78;5051664;28;20263;-58
2023/02/27 09:45:06;;;;;;;3.87;2.50;;;3.20;99.90;;;-141.84;61.38;19114.78;5052096;28;20235;-60
2023/02/27 09:47:41;;;;;;;3.33;2.70;;;3.40;99.90;;;-141.84;60.38;19118.84;5051722;28;20226;-60
2023/02/27 09:50:38;;;;;;;3.87;2.30;;;3.50;99.90;;;-141.84;60.02;19106.66;5052241;28;20228;-60
2023/02/27 09:53:14;;;;;;;3.70;2.33;;;3.60;99.90;;;-141.84;59.60;19108.69;5051945;28;20224;-59
2023/02/27 09:55:46;;;;;;;4.33;2.70;;;3.50;99.90;;;-141.84;60.07;19149.31;5052492;28;20241;-58
2023/02/27 09:58:43;;;;;;;4.83;2.60;;;3.60;99.90;;;-141.84;60.87;19094.44;5052514;28;20212;-59
2023/02/27 10:01:20;;;;;;;3.23;2.50;;;3.40;99.90;;;-141.84;61.57;19072.09;5052276;28;20218;-60
2023/02/27 10:04:25;;;;;;;3.10;2.70;;;3.20;99.90;;;-141.84;61.65;19122.91;5051494;28;20725;-60
2023/02/27 10:07:07;;;;;;;3.27;2.30;;;3.40;99.90;;;-141.84;61.66;19092.41;5049822;28;20234;-60
2023/02/27 10:09:47;;;;;;;4.80;2.47;;;3.40;99.90;;;-141.84;60.54;19116.81;5051452;28;20227;-60
2023/02/27 10:12:37;;;;;;;3.27;2.60;;;3.60;99.90;;;-141.84;60.70;19112.75;5031555;28;20974;-59
2023/02/27 10:15:16;;;;;;;4.90;2.57;;;3.60;99.90;;;-141.84;60.92;19120.88;5031784;28;20244;-61
2023/02/27 10:17:50;;;;;;;4.50;2.20;;;3.50;99.90;;;-141.84;60.33;19126.97;5031573;28;20239;-60
2023/02/27 10:20:28;;;;;;;2.80;2.30;;;3.60;99.90;;;-141.84;60.38;19139.16;5031589;28;20232;-59
2023/02/27 10:23:04;;;;;;;2.30;1.90;;;3.80;99.90;;;-141.84;59.56;19149.31;5031788;28;20260;-60
2023/02/27 10:25:44;;;;;;;2.63;2.00;;;3.80;99.90;;;-141.84;58.25;19210.28;5031944;28;20599;-59
2023/02/27 10:28:15;;;;;;;4.43;2.13;;;4.20;99.90;;;-141.84;58.71;19192.00;5031923;28;20208;-60
2023/02/27 10:30:49;;;;;;;2.10;1.90;;;4.20;99.90;;;-141.84;58.44;19171.66;5031970;28;20909;-61
2023/02/27 10:33:31;;;;;;;2.83;2.17;;;4.20;99.90;;;-141.84;58.51;19175.72;5051468;28;20719;-58
2023/02/27 10:36:02;;;;;;;4.40;2.30;;;4.30;99.90;;;-141.84;59.53;19165.56;5051666;28;20290;-60
2023/02/27 10:38:37;;;;;;;3.80;2.20;;;4.20;99.90;;;-141.84;59.06;19139.16;5051313;28;20228;-59
2023/02/27 10:41:10;;;;;;;3.63;1.93;;;4.10;99.90;;;-141.84;59.29;19181.81;5051053;28;20785;-57